createdAt,value
2019-03-13T00:02:27.237Z,10.20
2019-03-13T00:05:16.975Z,10.40
2019-03-13T00:07:46.584Z,10.50
2019-03-13T00:10:24.550Z,10.60
2019-03-13T00:12:52.798Z,10.70
2019-03-13T00:15:54.740Z,10.70
2019-03-13T00:18:30.921Z,10.70
2019-03-13T00:21:02.198Z,10.70
2019-03-13T00:23:33.370Z,10.70
2019-03-13T00:26:02.585Z,10.60
2019-03-13T00:28:35.013Z,10.50
2019-03-13T00:31:09.450Z,10.50
2019-03-13T00:33:42.494Z,10.40
2019-03-13T00:36:20.891Z,10.30
2019-03-13T00:38:50.262Z,10.20
2019-03-13T00:41:29.686Z,10.20
2019-03-13T00:44:00.716Z,10.00
2019-03-13T00:46:30.575Z,9.80
2019-03-13T00:48:59.489Z,9.80
2019-03-13T00:51:28.000Z,9.70
2019-03-13T00:53:58.652Z,9.50
2019-03-13T00:56:53.038Z,9.50
2019-03-13T01:02:14.582Z,9.20
2019-03-13T01:04:47.494Z,9.20
2019-03-13T01:07:18.542Z,9.00
2019-03-13T01:09:47.056Z,8.90
2019-03-13T01:12:32.866Z,8.80
2019-03-13T01:15:31.613Z,8.60
2019-03-13T01:18:00.591Z,8.50
2019-03-13T01:20:29.716Z,8.40
2019-03-13T01:22:58.050Z,8.30
2019-03-13T01:25:35.467Z,8.10
2019-03-13T01:28:04.200Z,8.20
2019-03-13T01:30:44.652Z,8.20
2019-03-13T01:33:14.727Z,8.10
2019-03-13T01:35:52.618Z,8.10
2019-03-13T01:38:21.297Z,8.00
2019-03-13T01:40:56.720Z,8.00
2019-03-13T01:43:36.340Z,7.90
2019-03-13T01:46:06.077Z,7.90
2019-03-13T01:48:34.636Z,8.00
2019-03-13T01:51:03.695Z,8.00
2019-03-13T01:53:32.484Z,7.90
2019-03-13T01:56:03.185Z,7.80
2019-03-13T01:58:32.781Z,7.70
2019-03-13T02:01:01.294Z,7.70
2019-03-13T02:03:30.569Z,7.60
2019-03-13T02:05:58.743Z,7.50
2019-03-13T02:08:28.254Z,7.50
2019-03-13T02:10:56.388Z,7.60
2019-03-13T02:13:24.415Z,7.60
2019-03-13T02:15:53.125Z,7.50
2019-03-13T02:18:21.837Z,7.50
2019-03-13T02:20:51.199Z,7.50
2019-03-13T02:23:20.764Z,7.60
2019-03-13T02:25:49.216Z,7.60
2019-03-13T02:28:17.772Z,7.60
2019-03-13T02:30:47.785Z,7.60
2019-03-13T02:33:16.213Z,7.70
2019-03-13T02:35:44.256Z,7.70
2019-03-13T02:38:12.211Z,7.70
2019-03-13T02:40:40.782Z,7.70
2019-03-13T02:43:11.363Z,7.70
2019-03-13T02:45:39.599Z,7.60
2019-03-13T02:48:08.471Z,7.70
2019-03-13T02:50:36.555Z,7.70
2019-03-13T02:53:04.317Z,7.60
2019-03-13T02:55:32.408Z,7.70
2019-03-13T02:58:00.535Z,7.60
2019-03-13T03:00:44.302Z,7.60
2019-03-13T03:03:28.157Z,7.60
2019-03-13T03:05:59.956Z,7.50
2019-03-13T03:08:30.123Z,7.50
2019-03-13T03:11:02.644Z,7.40
2019-03-13T03:13:38.649Z,7.40
2019-03-13T03:16:22.969Z,7.30
2019-03-13T03:18:47.526Z,7.10
2019-03-13T03:21:14.922Z,6.90
2019-03-13T03:23:48.844Z,6.90
2019-03-13T03:26:20.390Z,6.80
2019-03-13T03:28:48.506Z,6.70
2019-03-13T03:31:17.382Z,6.70
2019-03-13T03:34:06.842Z,6.70
2019-03-13T03:36:39.332Z,6.70
2019-03-13T03:39:10.363Z,6.70
2019-03-13T03:41:38.895Z,6.60
2019-03-13T03:44:17.794Z,6.60
2019-03-13T03:46:50.898Z,6.50
2019-03-13T03:49:19.257Z,6.50
2019-03-13T03:51:49.435Z,6.50
2019-03-13T03:54:20.685Z,6.50
2019-03-13T03:56:51.237Z,6.40
2019-03-13T03:59:26.523Z,6.50
2019-03-13T04:01:54.762Z,6.50
2019-03-13T04:04:23.992Z,6.40
2019-03-13T04:06:52.910Z,6.40
2019-03-13T04:09:23.575Z,6.40
2019-03-13T04:11:59.765Z,6.50
2019-03-13T04:14:30.830Z,6.40
2019-03-13T04:17:13.456Z,6.50
2019-03-13T04:19:47.589Z,6.30
2019-03-13T04:22:15.220Z,6.00
2019-03-13T04:24:43.052Z,5.80
2019-03-13T04:27:20.423Z,5.80
2019-03-13T04:29:54.335Z,5.70
2019-03-13T04:32:22.327Z,5.60
2019-03-13T04:34:50.699Z,5.50
2019-03-13T04:37:18.587Z,5.40
2019-03-13T04:40:27.416Z,5.30
2019-03-13T04:42:55.310Z,5.30
2019-03-13T04:45:23.145Z,5.30
2019-03-13T04:47:54.258Z,5.30
2019-03-13T04:50:21.895Z,5.30
2019-03-13T04:52:49.901Z,5.40
2019-03-13T04:55:17.874Z,5.30
2019-03-13T04:57:45.798Z,5.40
2019-03-13T05:00:14.224Z,5.40
2019-03-13T05:02:42.290Z,5.40
2019-03-13T05:05:47.053Z,5.50
2019-03-13T05:08:29.974Z,5.60
2019-03-13T05:10:57.661Z,5.60
2019-03-13T05:13:25.645Z,5.40
2019-03-13T05:16:13.216Z,5.20
2019-03-13T05:18:41.257Z,5.20
2019-03-13T05:21:10.946Z,5.20
2019-03-13T05:23:38.644Z,5.30
2019-03-13T05:26:07.008Z,5.30
2019-03-13T05:28:34.793Z,5.30
2019-03-13T05:31:02.496Z,5.10
2019-03-13T05:33:30.346Z,5.20
2019-03-13T05:35:58.641Z,5.20
2019-03-13T05:38:26.424Z,5.30
2019-03-13T05:40:54.449Z,5.40
2019-03-13T05:43:22.448Z,5.40
2019-03-13T05:45:53.144Z,5.30
2019-03-13T05:48:20.917Z,5.30
2019-03-13T05:50:48.759Z,5.30
2019-03-13T05:53:30.468Z,5.30
2019-03-13T05:55:58.610Z,5.40
2019-03-13T05:58:26.181Z,5.40
2019-03-13T06:00:54.122Z,5.40
2019-03-13T06:03:24.621Z,5.40
2019-03-13T06:05:52.379Z,5.30
2019-03-13T06:08:20.064Z,5.40
2019-03-13T06:10:47.761Z,5.40
2019-03-13T06:13:15.715Z,5.40
2019-03-13T06:15:56.529Z,5.30
2019-03-13T06:18:24.218Z,5.30
2019-03-13T06:20:52.989Z,5.30
2019-03-13T06:23:31.636Z,5.20
2019-03-13T06:26:04.089Z,5.20
2019-03-13T06:28:32.017Z,5.20
2019-03-13T06:30:59.754Z,5.20
2019-03-13T06:33:30.334Z,5.20
2019-03-13T06:35:58.070Z,5.20
2019-03-13T06:38:25.962Z,5.20
2019-03-13T06:40:53.864Z,5.20
2019-03-13T06:43:21.466Z,5.20
2019-03-13T06:45:49.379Z,5.20
2019-03-13T06:48:17.039Z,5.30
2019-03-13T06:50:44.732Z,5.30
2019-03-13T06:53:12.544Z,5.40
2019-03-13T06:55:40.370Z,5.40
2019-03-13T06:58:07.937Z,5.50
2019-03-13T07:01:23.007Z,5.50
2019-03-13T07:04:08.451Z,5.60
2019-03-13T07:06:59.414Z,5.80
2019-03-13T07:10:21.178Z,6.00
2019-03-13T07:13:12.273Z,6.30
2019-03-13T07:15:45.715Z,6.60
2019-03-13T07:18:20.156Z,7.00
2019-03-13T07:21:07.495Z,7.40
2019-03-13T07:24:01.235Z,7.40
2019-03-13T07:26:57.728Z,7.50
2019-03-13T07:30:04.436Z,7.50
2019-03-13T07:32:56.627Z,7.60
2019-03-13T07:35:32.033Z,8.00
2019-03-13T07:38:11.516Z,8.10
2019-03-13T07:41:00.304Z,8.40
2019-03-13T07:43:46.108Z,8.60
2019-03-13T07:46:32.525Z,9.10
2019-03-13T07:49:28.432Z,8.90
2019-03-13T07:52:12.717Z,8.90
2019-03-13T07:55:05.972Z,8.90
2019-03-13T07:57:56.747Z,8.80
2019-03-13T08:00:32.690Z,8.70
2019-03-13T08:03:07.013Z,8.40
2019-03-13T08:06:11.784Z,8.30
2019-03-13T08:12:32.887Z,8.70
2019-03-13T08:15:11.659Z,8.80
2019-03-13T08:18:13.757Z,9.00
2019-03-13T08:20:59.681Z,9.10
2019-03-13T08:23:49.977Z,9.20
2019-03-13T08:26:40.364Z,9.00
2019-03-13T08:29:26.216Z,9.00
2019-03-13T08:32:04.012Z,8.90
2019-03-13T08:34:48.851Z,9.00
2019-03-13T08:37:50.976Z,8.90
2019-03-13T08:40:47.214Z,8.90
2019-03-13T08:43:37.483Z,8.80
2019-03-13T08:46:37.103Z,8.60
2019-03-13T08:52:24.754Z,8.50
2019-03-13T08:58:37.810Z,8.50
2019-03-13T09:01:34.031Z,8.60
2019-03-13T09:04:37.030Z,8.40
2019-03-13T09:07:39.799Z,8.40
2019-03-13T09:10:28.793Z,8.40
2019-03-13T09:13:06.701Z,8.30
2019-03-13T09:15:54.100Z,8.20
2019-03-13T09:18:41.284Z,8.10
2019-03-13T09:21:33.625Z,8.30
2019-03-13T09:24:29.473Z,8.30
2019-03-13T09:27:15.245Z,8.60
2019-03-13T09:30:05.001Z,8.90
2019-03-13T09:32:41.504Z,8.80
2019-03-13T09:35:15.749Z,8.70
2019-03-13T09:38:17.936Z,8.60
2019-03-13T09:41:00.552Z,8.70
2019-03-13T09:43:47.925Z,8.60
2019-03-13T09:46:41.119Z,8.50
2019-03-13T09:49:16.063Z,8.70
2019-03-13T09:52:08.987Z,9.10
2019-03-13T09:55:04.521Z,9.40
2019-03-13T09:57:49.626Z,9.70
2019-03-13T10:00:33.354Z,9.90
2019-03-13T10:03:23.507Z,9.90
2019-03-13T10:06:22.293Z,9.70
2019-03-13T10:08:58.207Z,9.70
2019-03-13T10:11:41.099Z,9.90
2019-03-13T10:14:19.087Z,10.10
2019-03-13T10:17:10.652Z,10.20
2019-03-13T10:19:44.517Z,10.40
2019-03-13T10:22:37.470Z,10.30
2019-03-13T10:25:24.048Z,10.00
2019-03-13T10:28:03.300Z,9.80
2019-03-13T10:30:56.441Z,9.70
2019-03-13T10:33:35.373Z,9.50
2019-03-13T10:36:25.586Z,9.60
2019-03-13T10:39:03.629Z,9.50
2019-03-13T10:41:38.424Z,9.70
2019-03-13T10:44:28.645Z,9.60
2019-03-13T10:47:14.650Z,9.50
2019-03-13T10:49:47.497Z,9.70
2019-03-13T10:52:34.507Z,9.90
2019-03-13T10:55:20.873Z,10.20
2019-03-13T10:58:26.242Z,10.20
2019-03-13T11:01:11.461Z,10.10
2019-03-13T11:04:01.857Z,9.70
2019-03-13T11:06:55.553Z,9.40
2019-03-13T11:09:47.922Z,9.40
2019-03-13T11:12:37.846Z,9.40
2019-03-13T11:15:12.981Z,9.30
2019-03-13T11:17:58.809Z,9.30
2019-03-13T11:20:51.805Z,9.60
2019-03-13T11:23:38.971Z,9.80
2019-03-13T11:26:19.730Z,9.90
2019-03-13T11:29:13.122Z,9.90
2019-03-13T11:32:03.116Z,9.90
2019-03-13T11:34:48.677Z,9.70
2019-03-13T11:37:42.821Z,9.70
2019-03-13T11:40:30.309Z,9.80
2019-03-13T11:43:16.116Z,9.60
2019-03-13T11:46:01.914Z,9.70
2019-03-13T11:48:39.388Z,9.40
2019-03-13T11:51:30.796Z,9.20
2019-03-13T11:54:04.736Z,9.20
2019-03-13T11:56:57.955Z,9.30
2019-03-13T12:00:03.066Z,9.20
2019-03-13T12:02:52.944Z,9.10
2019-03-13T12:05:38.566Z,9.00
2019-03-13T12:08:24.666Z,9.20
2019-03-13T12:11:18.222Z,9.30
2019-03-13T12:14:04.440Z,9.30
2019-03-13T12:16:57.868Z,9.00
2019-03-13T12:19:45.740Z,9.00
2019-03-13T12:22:27.720Z,8.80
2019-03-13T12:25:21.246Z,8.70
2019-03-13T12:28:39.161Z,8.80
2019-03-13T12:31:29.511Z,8.90
2019-03-13T12:34:50.794Z,9.10
2019-03-13T12:41:12.632Z,8.90
2019-03-13T12:44:05.887Z,8.70
2019-03-13T12:47:11.096Z,8.50
2019-03-13T12:50:07.839Z,8.50
2019-03-13T12:53:15.001Z,8.60
2019-03-13T12:56:17.626Z,8.70
2019-03-13T12:59:03.714Z,8.60
2019-03-13T13:01:52.166Z,8.60
2019-03-13T13:04:35.611Z,8.60
2019-03-13T13:07:23.685Z,8.90
2019-03-13T13:10:09.671Z,9.20
2019-03-13T13:12:51.721Z,9.60
2019-03-13T13:16:14.574Z,9.60
2019-03-13T13:18:53.558Z,9.40
2019-03-13T13:21:21.871Z,9.30
2019-03-13T13:23:50.579Z,9.30
2019-03-13T13:26:18.455Z,9.30
2019-03-13T13:28:46.598Z,9.20
2019-03-13T13:31:20.360Z,9.10
2019-03-13T13:33:48.292Z,8.80
2019-03-13T13:36:17.070Z,8.70
2019-03-13T13:38:50.058Z,8.60
2019-03-13T13:41:24.078Z,8.40
2019-03-13T13:43:52.269Z,8.10
2019-03-13T13:46:24.575Z,7.90
2019-03-13T13:48:53.069Z,7.90
2019-03-13T13:51:24.873Z,7.80
2019-03-13T13:54:04.112Z,7.90
2019-03-13T13:56:32.674Z,8.00
2019-03-13T13:59:09.580Z,8.30
2019-03-13T14:01:37.851Z,8.30
2019-03-13T14:04:17.415Z,8.30
2019-03-13T14:09:26.624Z,8.50
2019-03-13T14:11:54.289Z,8.60
2019-03-13T14:14:21.994Z,8.70
2019-03-13T14:16:52.421Z,8.70
2019-03-13T14:19:20.554Z,8.80
2019-03-13T14:21:48.349Z,8.80
2019-03-13T14:24:17.424Z,8.70
2019-03-13T14:26:49.111Z,8.70
2019-03-13T14:29:19.161Z,8.70
2019-03-13T14:31:51.193Z,8.70
2019-03-13T14:34:18.936Z,8.70
2019-03-13T14:36:47.800Z,8.80
2019-03-13T14:39:20.299Z,8.90
2019-03-13T14:41:51.382Z,9.00
2019-03-13T14:44:26.303Z,8.90
2019-03-13T14:46:56.278Z,9.00
2019-03-13T14:49:24.408Z,8.90
2019-03-13T14:51:52.537Z,9.00
2019-03-13T14:54:20.107Z,8.90
2019-03-13T14:56:49.780Z,8.90
2019-03-13T14:59:17.679Z,8.90
2019-03-13T15:01:46.661Z,9.00
2019-03-13T15:04:14.630Z,9.10
2019-03-13T15:06:42.361Z,9.10
2019-03-13T15:09:10.352Z,9.10
2019-03-13T15:11:38.511Z,9.10
2019-03-13T15:14:06.849Z,9.10
2019-03-13T15:16:34.643Z,9.20
2019-03-13T15:19:08.414Z,9.10
2019-03-13T15:21:36.235Z,9.00
2019-03-13T15:24:04.283Z,8.90
2019-03-13T15:26:33.914Z,8.80
2019-03-13T15:29:02.101Z,8.90
2019-03-13T15:31:54.387Z,8.80
2019-03-13T15:34:30.517Z,8.80
2019-03-13T15:36:58.393Z,8.80
2019-03-13T15:39:34.532Z,8.80
2019-03-13T15:42:22.900Z,8.90
2019-03-13T15:44:55.575Z,9.00
2019-03-13T15:47:26.434Z,9.10
2019-03-13T15:49:57.286Z,9.10
2019-03-13T15:52:26.870Z,9.10
2019-03-13T15:54:56.629Z,9.00
2019-03-13T15:57:26.379Z,9.00
2019-03-13T15:59:55.135Z,9.00
2019-03-13T16:02:22.922Z,9.00
2019-03-13T16:04:50.972Z,9.00
2019-03-13T16:07:33.203Z,9.00
2019-03-13T16:10:05.190Z,9.10
2019-03-13T16:12:35.151Z,9.10
2019-03-13T16:15:06.970Z,9.00
2019-03-13T16:17:34.902Z,9.00
2019-03-13T16:20:03.727Z,9.10
2019-03-13T16:22:31.586Z,9.10
2019-03-13T16:25:01.905Z,8.90
2019-03-13T16:27:29.828Z,9.00
2019-03-13T16:30:00.431Z,9.00
2019-03-13T16:32:43.327Z,9.00
2019-03-13T16:34:57.983Z,9.00
2019-03-13T16:37:25.857Z,8.90
2019-03-13T16:39:53.953Z,8.90
2019-03-13T16:42:40.493Z,8.80
2019-03-13T16:45:11.690Z,8.70
2019-03-13T16:47:45.452Z,8.70
2019-03-13T16:50:24.211Z,8.60
2019-03-13T16:52:52.683Z,8.60
2019-03-13T16:55:23.597Z,8.50
2019-03-13T16:57:51.676Z,8.60
2019-03-13T17:00:21.981Z,8.70
2019-03-13T17:02:49.975Z,8.60
2019-03-13T17:05:17.941Z,8.70
2019-03-13T17:07:49.870Z,8.50
2019-03-13T17:10:18.442Z,8.50
2019-03-13T17:12:47.111Z,8.40
2019-03-13T17:15:21.976Z,8.40
2019-03-13T17:17:50.593Z,8.30
2019-03-13T17:20:22.183Z,8.40
2019-03-13T17:22:50.346Z,8.30
2019-03-13T17:25:23.362Z,8.30
2019-03-13T17:27:53.053Z,8.30
2019-03-13T17:30:23.226Z,8.20
2019-03-13T17:32:51.215Z,8.20
2019-03-13T17:35:18.815Z,8.10
2019-03-13T17:37:46.742Z,8.20
2019-03-13T17:40:18.030Z,8.00
2019-03-13T17:42:46.007Z,8.00
2019-03-13T17:45:15.429Z,8.10
2019-03-13T17:47:43.199Z,8.10
2019-03-13T17:50:12.903Z,8.10
2019-03-13T17:52:40.430Z,8.00
2019-03-13T17:55:09.088Z,8.10
2019-03-13T17:57:37.131Z,8.10
2019-03-13T18:00:06.748Z,8.10
2019-03-13T18:02:35.337Z,8.10
2019-03-13T18:05:05.981Z,8.10
2019-03-13T18:07:33.439Z,8.20
2019-03-13T18:10:00.922Z,8.20
2019-03-13T18:12:28.416Z,8.20
2019-03-13T18:14:56.004Z,8.20
2019-03-13T18:17:23.476Z,8.20
2019-03-13T18:19:51.577Z,8.30
2019-03-13T18:22:19.976Z,8.20
2019-03-13T18:24:47.498Z,8.10
2019-03-13T18:27:15.752Z,8.10
2019-03-13T18:29:45.709Z,8.20
2019-03-13T18:32:13.781Z,8.20
2019-03-13T18:34:47.083Z,8.20
2019-03-13T18:37:14.644Z,8.20
2019-03-13T18:39:42.140Z,8.10
2019-03-13T18:42:09.773Z,8.10
2019-03-13T18:44:38.166Z,8.00
2019-03-13T18:47:06.056Z,7.90
2019-03-13T18:49:34.880Z,7.90
2019-03-13T18:52:02.743Z,7.80
2019-03-13T18:54:30.472Z,7.80
2019-03-13T18:56:58.641Z,7.80
2019-03-13T18:59:26.687Z,7.80
2019-03-13T19:01:54.401Z,7.70
2019-03-13T19:04:22.188Z,7.60
2019-03-13T19:06:51.235Z,7.60
2019-03-13T19:09:19.270Z,7.50
2019-03-13T19:11:46.959Z,7.40
2019-03-13T19:14:15.254Z,7.50
2019-03-13T19:16:43.849Z,7.40
2019-03-13T19:19:11.758Z,7.40
2019-03-13T19:21:39.379Z,7.40
2019-03-13T19:24:08.442Z,7.30
2019-03-13T19:26:36.167Z,7.30
2019-03-13T19:29:03.954Z,7.20
2019-03-13T19:31:31.662Z,7.10
2019-03-13T19:33:59.802Z,7.10
2019-03-13T19:36:28.414Z,6.90
2019-03-13T19:39:03.643Z,6.80
2019-03-13T19:41:31.477Z,6.80
2019-03-13T19:43:59.465Z,6.70
2019-03-13T19:46:27.141Z,6.70
2019-03-13T19:48:54.770Z,6.70
2019-03-13T19:51:26.629Z,6.60
2019-03-13T19:53:54.397Z,6.60
2019-03-13T19:56:22.632Z,6.60
2019-03-13T19:58:52.431Z,6.60
2019-03-13T20:01:20.068Z,6.60
2019-03-13T20:03:55.086Z,6.60
2019-03-13T20:06:17.114Z,6.60
2019-03-13T20:08:44.737Z,6.50
2019-03-13T20:11:12.229Z,6.60
2019-03-13T20:13:40.305Z,6.70
2019-03-13T20:16:07.911Z,6.70
2019-03-13T20:18:35.460Z,6.70
2019-03-13T20:21:03.284Z,6.80
2019-03-13T20:23:30.884Z,6.70
2019-03-13T20:25:58.710Z,6.60
2019-03-13T20:28:26.292Z,6.60
2019-03-13T20:30:54.147Z,6.60
2019-03-13T20:33:21.941Z,6.60
2019-03-13T20:35:50.201Z,6.50
2019-03-13T20:38:18.083Z,6.50
2019-03-13T20:40:55.282Z,6.50
2019-03-13T20:43:22.938Z,6.40
2019-03-13T20:46:04.965Z,6.40
2019-03-13T20:48:36.169Z,6.30
2019-03-13T20:51:05.873Z,6.20
2019-03-13T20:53:33.772Z,6.10
2019-03-13T20:56:02.789Z,6.00
2019-03-13T20:58:33.500Z,6.00
2019-03-13T21:01:01.437Z,5.90
2019-03-13T21:03:32.239Z,5.90
2019-03-13T21:06:00.804Z,6.00
2019-03-13T21:08:28.987Z,6.00
2019-03-13T21:10:56.546Z,6.00
2019-03-13T21:13:24.119Z,5.90
2019-03-13T21:15:56.980Z,5.80
2019-03-13T21:18:25.265Z,5.90
2019-03-13T21:20:52.740Z,5.90
2019-03-13T21:23:20.484Z,5.80
2019-03-13T21:25:48.201Z,5.80
2019-03-13T21:28:15.901Z,5.80
2019-03-13T21:30:51.733Z,5.80
2019-03-13T21:33:26.908Z,5.80
2019-03-13T21:35:55.106Z,5.60
2019-03-13T21:38:23.203Z,5.60
2019-03-13T21:40:53.201Z,5.60
2019-03-13T21:43:20.851Z,5.60
2019-03-13T21:45:49.731Z,5.60
2019-03-13T21:48:17.590Z,5.60
2019-03-13T21:50:45.646Z,5.70
2019-03-13T21:53:13.527Z,5.50
2019-03-13T21:55:49.169Z,5.40
2019-03-13T21:58:21.708Z,5.40
2019-03-13T22:00:59.581Z,5.30
2019-03-13T22:03:31.163Z,5.30
2019-03-13T22:06:03.477Z,5.30
2019-03-13T22:08:36.574Z,5.30
2019-03-13T22:11:07.688Z,5.20
2019-03-13T22:13:38.054Z,5.20
2019-03-13T22:16:13.756Z,5.20
2019-03-13T22:18:42.703Z,5.20
2019-03-13T22:21:11.252Z,5.20
2019-03-13T22:23:39.366Z,5.30
2019-03-13T22:26:07.310Z,5.30
2019-03-13T22:28:35.208Z,5.40
2019-03-13T22:31:03.263Z,5.50
2019-03-13T22:33:31.140Z,5.40
2019-03-13T22:35:59.738Z,5.30
2019-03-13T22:38:34.517Z,5.30
2019-03-13T22:41:12.961Z,5.30
2019-03-13T22:43:40.872Z,5.40
2019-03-13T22:46:08.698Z,5.40
2019-03-13T22:48:37.157Z,5.50
2019-03-13T22:51:05.074Z,5.50
2019-03-13T22:53:33.191Z,5.40
2019-03-13T22:56:03.285Z,5.40
2019-03-13T22:58:31.194Z,5.50
2019-03-13T23:01:06.142Z,5.50
2019-03-13T23:03:34.027Z,5.40
2019-03-13T23:06:02.679Z,5.50
2019-03-13T23:08:31.267Z,5.50
2019-03-13T23:10:59.143Z,5.60
2019-03-13T23:13:26.974Z,5.50
2019-03-13T23:15:55.260Z,5.50
2019-03-13T23:21:16.566Z,5.50
2019-03-13T23:23:44.211Z,5.60
2019-03-13T23:26:32.243Z,5.70
2019-03-13T23:29:02.593Z,5.70
2019-03-13T23:31:39.786Z,5.70
2019-03-13T23:34:09.823Z,5.70
2019-03-13T23:36:37.510Z,5.70
2019-03-13T23:39:08.618Z,5.70
2019-03-13T23:41:39.253Z,5.80
2019-03-13T23:44:20.456Z,5.80
2019-03-13T23:46:49.093Z,5.70
2019-03-13T23:49:17.235Z,5.70
2019-03-13T23:52:04.648Z,5.80
2019-03-13T23:58:18.121Z,5.80
